createdAt,value
2022-12-17T00:00:42.680Z,970.53
2022-12-17T00:01:42.582Z,970.47
2022-12-17T00:02:42.859Z,970.49
2022-12-17T00:03:43.089Z,970.51
2022-12-17T00:04:42.798Z,970.53
2022-12-17T00:05:42.540Z,970.56
2022-12-17T00:06:42.573Z,970.52
2022-12-17T00:07:42.589Z,970.56
2022-12-17T00:08:42.631Z,970.57
2022-12-17T00:09:44.616Z,970.60
2022-12-17T00:10:42.436Z,970.62
2022-12-17T00:11:42.523Z,970.57
2022-12-17T00:12:42.408Z,970.58
2022-12-17T00:13:42.543Z,970.60
2022-12-17T00:14:42.448Z,970.61
2022-12-17T00:15:42.632Z,970.62
2022-12-17T00:16:42.584Z,970.61
2022-12-17T00:17:42.472Z,970.65
2022-12-17T00:18:42.445Z,970.66
2022-12-17T00:19:42.592Z,970.69
2022-12-17T00:20:44.181Z,970.69
2022-12-17T00:21:42.496Z,970.70
2022-12-17T00:22:42.281Z,970.68
2022-12-17T00:23:42.407Z,970.73
2022-12-17T00:24:42.386Z,970.75
2022-12-17T00:25:44.507Z,970.82
2022-12-17T00:26:42.297Z,970.83
2022-12-17T00:27:42.290Z,970.84
2022-12-17T00:28:42.406Z,970.83
2022-12-17T00:29:42.232Z,970.85
2022-12-17T00:30:42.368Z,970.89
2022-12-17T00:31:42.280Z,970.87
2022-12-17T00:32:42.683Z,970.93
2022-12-17T00:33:42.218Z,970.95
2022-12-17T00:34:42.266Z,970.98
2022-12-17T00:35:42.157Z,970.98
2022-12-17T00:36:42.270Z,970.99
2022-12-17T00:37:42.159Z,971.04
2022-12-17T00:38:42.294Z,971.04
2022-12-17T00:39:42.366Z,971.05
2022-12-17T00:40:42.133Z,971.07
2022-12-17T00:41:42.224Z,971.07
2022-12-17T00:42:42.054Z,970.99
2022-12-17T00:43:42.136Z,971.03
2022-12-17T00:44:42.063Z,970.99
2022-12-17T00:45:42.183Z,971.02
2022-12-17T00:46:42.065Z,971.03
2022-12-17T00:47:42.167Z,970.99
2022-12-17T00:48:42.010Z,971.04
2022-12-17T00:49:42.163Z,971.02
2022-12-17T00:50:41.977Z,971.03
2022-12-17T00:51:42.092Z,971.04
2022-12-17T00:52:41.948Z,971.10
2022-12-17T00:53:42.005Z,971.10
2022-12-17T00:54:41.886Z,971.07
2022-12-17T00:55:42.160Z,971.12
2022-12-17T00:56:41.873Z,971.11
2022-12-17T00:57:42.045Z,971.12
2022-12-17T00:58:41.931Z,971.11
2022-12-17T00:59:42.004Z,971.14
2022-12-17T01:00:42.127Z,971.14
2022-12-17T01:01:42.041Z,971.16
2022-12-17T01:02:42.091Z,971.20
2022-12-17T01:03:41.847Z,971.19
2022-12-17T01:04:41.842Z,971.16
2022-12-17T01:05:41.863Z,971.17
2022-12-17T01:06:41.785Z,971.18
2022-12-17T01:07:41.997Z,971.16
2022-12-17T01:08:41.738Z,971.18
2022-12-17T01:09:41.865Z,971.22
2022-12-17T01:10:41.797Z,971.25
2022-12-17T01:11:41.735Z,971.21
2022-12-17T01:12:41.843Z,971.29
2022-12-17T01:13:41.741Z,971.23
2022-12-17T01:14:41.818Z,971.26
2022-12-17T01:15:41.677Z,971.27
2022-12-17T01:16:41.803Z,971.25
2022-12-17T01:17:41.647Z,971.23
2022-12-17T01:18:42.183Z,971.22
2022-12-17T01:19:41.630Z,971.26
2022-12-17T01:20:41.754Z,971.28
2022-12-17T01:21:41.602Z,971.30
2022-12-17T01:22:41.668Z,971.27
2022-12-17T01:23:41.611Z,971.27
2022-12-17T01:24:41.738Z,971.27
2022-12-17T01:25:41.571Z,971.26
2022-12-17T01:26:41.593Z,971.22
2022-12-17T01:27:41.563Z,971.23
2022-12-17T01:28:41.608Z,971.26
2022-12-17T01:29:41.514Z,971.25
2022-12-17T01:30:41.626Z,971.26
2022-12-17T01:31:41.503Z,971.28
2022-12-17T01:32:41.647Z,971.27
2022-12-17T01:33:41.494Z,971.23
2022-12-17T01:34:41.576Z,971.27
2022-12-17T01:35:41.441Z,971.27
2022-12-17T01:36:41.581Z,971.25
2022-12-17T01:37:41.407Z,971.28
2022-12-17T01:38:41.482Z,971.28
2022-12-17T01:39:41.402Z,971.30
2022-12-17T01:40:41.490Z,971.27
2022-12-17T01:41:41.370Z,971.30
2022-12-17T01:42:41.398Z,971.31
2022-12-17T01:43:41.348Z,971.31
2022-12-17T01:44:41.519Z,971.32
2022-12-17T01:45:41.402Z,971.30
2022-12-17T01:46:41.434Z,971.36
2022-12-17T01:47:41.286Z,971.39
2022-12-17T01:48:41.337Z,971.42
2022-12-17T01:49:41.276Z,971.39
2022-12-17T01:50:41.386Z,971.40
2022-12-17T01:51:41.243Z,971.38
2022-12-17T01:52:41.358Z,971.42
2022-12-17T01:53:41.226Z,971.49
2022-12-17T01:54:41.400Z,971.46
2022-12-17T01:55:41.195Z,971.50
2022-12-17T01:56:41.341Z,971.56
2022-12-17T01:57:41.166Z,971.58
2022-12-17T01:58:41.312Z,971.56
2022-12-17T01:59:41.146Z,971.57
2022-12-17T02:00:41.243Z,971.62
2022-12-17T02:01:41.359Z,971.60
2022-12-17T02:02:41.545Z,971.59
2022-12-17T02:03:41.109Z,971.64
2022-12-17T02:04:41.142Z,971.65
2022-12-17T02:05:41.109Z,971.65
2022-12-17T02:06:41.252Z,971.62
2022-12-17T02:07:41.132Z,971.64
2022-12-17T02:08:41.210Z,971.66
2022-12-17T02:09:41.027Z,971.67
2022-12-17T02:10:41.087Z,971.71
2022-12-17T02:11:41.013Z,971.71
2022-12-17T02:12:41.098Z,971.72
2022-12-17T02:13:41.021Z,971.77
2022-12-17T02:14:41.212Z,971.77
2022-12-17T02:15:40.992Z,971.79
2022-12-17T02:16:41.256Z,971.80
2022-12-17T02:17:40.946Z,971.82
2022-12-17T02:18:41.188Z,971.80
2022-12-17T02:19:40.903Z,971.79
2022-12-17T02:20:41.065Z,971.81
2022-12-17T02:21:40.886Z,971.76
2022-12-17T02:22:40.964Z,971.78
2022-12-17T02:23:40.855Z,971.80
2022-12-17T02:24:41.133Z,971.80
2022-12-17T02:25:40.818Z,971.81
2022-12-17T02:26:40.883Z,971.79
2022-12-17T02:27:40.810Z,971.83
2022-12-17T02:28:40.937Z,971.82
2022-12-17T02:29:40.776Z,971.82
2022-12-17T02:30:40.931Z,971.79
2022-12-17T02:31:40.767Z,971.81
2022-12-17T02:32:40.845Z,971.78
2022-12-17T02:33:40.716Z,971.77
2022-12-17T02:34:40.881Z,971.80
2022-12-17T02:35:40.717Z,971.79
2022-12-17T02:36:40.971Z,971.80
2022-12-17T02:37:40.671Z,971.85
2022-12-17T02:38:40.788Z,971.83
2022-12-17T02:39:40.674Z,971.85
2022-12-17T02:40:40.959Z,971.89
2022-12-17T02:41:40.628Z,971.92
2022-12-17T02:42:40.708Z,971.88
2022-12-17T02:43:40.697Z,971.90
2022-12-17T02:44:40.616Z,971.89
2022-12-17T02:45:40.805Z,971.91
2022-12-17T02:46:40.578Z,971.95
2022-12-17T02:47:40.738Z,971.96
2022-12-17T02:48:40.817Z,971.98
2022-12-17T02:49:40.513Z,971.95
2022-12-17T02:50:40.765Z,972.00
2022-12-17T02:51:40.526Z,971.97
2022-12-17T02:52:40.686Z,972.05
2022-12-17T02:53:40.484Z,972.07
2022-12-17T02:54:40.596Z,972.09
2022-12-17T02:55:40.456Z,972.10
2022-12-17T02:56:40.648Z,972.11
2022-12-17T02:57:43.744Z,972.12
2022-12-17T02:58:40.521Z,972.11
2022-12-17T02:59:40.403Z,972.16
2022-12-17T03:00:40.550Z,972.16
2022-12-17T03:01:40.640Z,972.17
2022-12-17T03:02:40.627Z,972.18
2022-12-17T03:03:40.868Z,972.21
2022-12-17T03:04:40.606Z,972.25
2022-12-17T03:05:45.391Z,972.22
2022-12-17T03:06:40.342Z,972.23
2022-12-17T03:07:40.499Z,972.26
2022-12-17T03:08:40.331Z,972.23
2022-12-17T03:09:40.376Z,972.26
2022-12-17T03:10:40.298Z,972.29
2022-12-17T03:11:40.494Z,972.34
2022-12-17T03:12:40.266Z,972.32
2022-12-17T03:13:40.432Z,972.34
2022-12-17T03:14:40.252Z,972.37
2022-12-17T03:15:40.317Z,972.33
2022-12-17T03:16:40.272Z,972.35
2022-12-17T03:17:40.323Z,972.36
2022-12-17T03:18:40.224Z,972.39
2022-12-17T03:19:40.272Z,972.38
2022-12-17T03:20:40.172Z,972.44
2022-12-17T03:21:40.253Z,972.44
2022-12-17T03:22:40.155Z,972.46
2022-12-17T03:23:40.373Z,972.47
2022-12-17T03:24:40.163Z,972.45
2022-12-17T03:25:40.178Z,972.41
2022-12-17T03:26:40.098Z,972.44
2022-12-17T03:27:40.205Z,972.47
2022-12-17T03:28:40.085Z,972.43
2022-12-17T03:29:40.268Z,972.51
2022-12-17T03:30:42.215Z,972.51
2022-12-17T03:31:40.185Z,972.49
2022-12-17T03:32:40.136Z,972.49
2022-12-17T03:33:39.986Z,972.54
2022-12-17T03:34:40.148Z,972.51
2022-12-17T03:35:39.997Z,972.51
2022-12-17T03:36:40.163Z,972.52
2022-12-17T03:37:39.951Z,972.53
2022-12-17T03:38:40.090Z,972.52
2022-12-17T03:39:39.926Z,972.50
2022-12-17T03:40:40.254Z,972.48
2022-12-17T03:41:39.908Z,972.46
2022-12-17T03:42:39.987Z,972.47
2022-12-17T03:43:39.883Z,972.50
2022-12-17T03:44:40.041Z,972.48
2022-12-17T03:45:40.135Z,972.49
2022-12-17T03:46:39.873Z,972.46
2022-12-17T03:47:39.911Z,972.49
2022-12-17T03:48:39.841Z,972.47
2022-12-17T03:49:39.936Z,972.49
2022-12-17T03:50:39.957Z,972.51
2022-12-17T03:51:39.803Z,972.50
2022-12-17T03:52:40.014Z,972.51
2022-12-17T03:53:39.760Z,972.47
2022-12-17T03:54:39.899Z,972.50
2022-12-17T03:55:39.927Z,972.52
2022-12-17T03:56:39.747Z,972.47
2022-12-17T03:57:39.893Z,972.49
2022-12-17T03:58:39.827Z,972.51
2022-12-17T03:59:39.804Z,972.50
2022-12-17T04:00:39.698Z,972.51
2022-12-17T04:01:39.932Z,972.53
2022-12-17T04:02:39.873Z,972.52
2022-12-17T04:03:40.522Z,972.56
2022-12-17T04:04:39.637Z,972.58
2022-12-17T04:05:39.745Z,972.54
2022-12-17T04:06:39.611Z,972.57
2022-12-17T04:07:39.701Z,972.57
2022-12-17T04:08:39.603Z,972.58
2022-12-17T04:09:39.708Z,972.59
2022-12-17T04:10:39.566Z,972.64
2022-12-17T04:11:39.679Z,972.63
2022-12-17T04:12:39.557Z,972.66
2022-12-17T04:13:41.351Z,972.63
2022-12-17T04:14:39.528Z,972.69
2022-12-17T04:15:39.703Z,972.72
2022-12-17T04:16:39.728Z,972.74
2022-12-17T04:17:39.469Z,972.79
2022-12-17T04:18:39.639Z,972.78
2022-12-17T04:19:39.458Z,972.81
2022-12-17T04:20:39.702Z,972.80
2022-12-17T04:21:39.644Z,972.83
2022-12-17T04:22:39.441Z,972.81
2022-12-17T04:23:39.555Z,972.85
2022-12-17T04:24:39.419Z,972.91
2022-12-17T04:25:39.517Z,972.92
2022-12-17T04:26:40.277Z,972.97
2022-12-17T04:27:39.342Z,972.96
2022-12-17T04:28:39.513Z,972.98
2022-12-17T04:29:39.329Z,973.02
2022-12-17T04:30:39.562Z,973.04
2022-12-17T04:31:39.338Z,973.07
2022-12-17T04:32:39.538Z,973.01
2022-12-17T04:33:39.485Z,973.06
2022-12-17T04:34:39.439Z,973.08
2022-12-17T04:35:39.265Z,973.02
2022-12-17T04:36:39.478Z,973.03
2022-12-17T04:37:39.272Z,973.03
2022-12-17T04:38:39.407Z,973.03
2022-12-17T04:39:39.214Z,973.05
2022-12-17T04:40:39.451Z,973.02
2022-12-17T04:41:39.171Z,973.02
2022-12-17T04:42:39.406Z,973.04
2022-12-17T04:43:39.476Z,973.03
2022-12-17T04:44:39.323Z,973.05
2022-12-17T04:45:39.145Z,973.05
2022-12-17T04:46:39.507Z,973.05
2022-12-17T04:47:39.167Z,973.03
2022-12-17T04:48:39.241Z,973.03
2022-12-17T04:49:39.123Z,973.14
2022-12-17T04:50:39.351Z,973.08
2022-12-17T04:51:39.088Z,973.16
2022-12-17T04:52:39.208Z,973.12
2022-12-17T04:53:39.429Z,973.12
2022-12-17T04:54:45.465Z,973.09
2022-12-17T04:55:39.008Z,973.09
2022-12-17T04:56:39.207Z,973.11
2022-12-17T04:57:39.015Z,973.08
2022-12-17T04:58:41.747Z,973.11
2022-12-17T04:59:38.975Z,973.12
2022-12-17T05:00:39.240Z,973.10
2022-12-17T05:01:39.102Z,973.14
2022-12-17T05:02:42.675Z,973.15
2022-12-17T05:03:39.517Z,973.16
2022-12-17T05:04:39.112Z,973.14
2022-12-17T05:05:38.929Z,973.11
2022-12-17T05:06:39.083Z,973.16
2022-12-17T05:07:38.893Z,973.13
2022-12-17T05:08:41.526Z,973.12
2022-12-17T05:09:38.902Z,973.12
2022-12-17T05:10:39.116Z,973.13
2022-12-17T05:11:38.837Z,973.17
2022-12-17T05:12:39.122Z,973.21
2022-12-17T05:13:39.113Z,973.16
2022-12-17T05:14:38.922Z,973.20
2022-12-17T05:15:38.870Z,973.19
2022-12-17T05:16:39.045Z,973.21
2022-12-17T05:17:38.759Z,973.22
2022-12-17T05:18:39.072Z,973.23
2022-12-17T05:19:38.730Z,973.23
2022-12-17T05:20:38.969Z,973.27
2022-12-17T05:21:38.738Z,973.28
2022-12-17T05:22:38.980Z,973.32
2022-12-17T05:23:39.034Z,973.32
2022-12-17T05:24:38.697Z,973.37
2022-12-17T05:25:38.821Z,973.41
2022-12-17T05:26:38.685Z,973.36
2022-12-17T05:27:38.799Z,973.39
2022-12-17T05:28:38.764Z,973.38
2022-12-17T05:29:38.618Z,973.38
2022-12-17T05:30:38.773Z,973.42
2022-12-17T05:31:38.685Z,973.42
2022-12-17T05:32:38.757Z,973.41
2022-12-17T05:33:39.072Z,973.43
2022-12-17T05:34:38.765Z,973.41
2022-12-17T05:35:38.575Z,973.43
2022-12-17T05:36:38.823Z,973.45
2022-12-17T05:37:38.524Z,973.49
2022-12-17T05:38:38.800Z,973.47
2022-12-17T05:39:38.497Z,973.50
2022-12-17T05:40:38.805Z,973.51
2022-12-17T05:41:38.506Z,973.50
2022-12-17T05:42:38.722Z,973.51
2022-12-17T05:43:38.840Z,973.56
2022-12-17T05:44:38.680Z,973.56
2022-12-17T05:45:38.432Z,973.57
2022-12-17T05:46:38.573Z,973.60
2022-12-17T05:47:38.407Z,973.63
2022-12-17T05:48:38.606Z,973.62
2022-12-17T05:49:38.541Z,973.63
2022-12-17T05:50:38.403Z,973.67
2022-12-17T05:51:39.167Z,973.68
2022-12-17T05:52:38.392Z,973.70
2022-12-17T05:53:38.839Z,973.73
2022-12-17T05:54:38.642Z,973.73
2022-12-17T05:55:38.308Z,973.74
2022-12-17T05:56:38.562Z,973.75
2022-12-17T05:57:38.286Z,973.77
2022-12-17T05:58:38.516Z,973.78
2022-12-17T05:59:38.345Z,973.82
2022-12-17T06:00:38.290Z,973.79
2022-12-17T06:01:38.459Z,973.83
2022-12-17T06:02:38.480Z,973.83
2022-12-17T06:03:38.951Z,973.83
2022-12-17T06:04:38.296Z,973.89
2022-12-17T06:05:38.207Z,973.89
2022-12-17T06:06:38.475Z,973.90
2022-12-17T06:07:38.163Z,973.90
2022-12-17T06:08:38.279Z,973.88
2022-12-17T06:09:38.143Z,973.91
2022-12-17T06:10:38.344Z,973.90
2022-12-17T06:11:38.115Z,973.91
2022-12-17T06:12:38.209Z,973.87
2022-12-17T06:13:38.300Z,973.86
2022-12-17T06:14:38.235Z,973.86
2022-12-17T06:15:38.058Z,973.85
2022-12-17T06:16:38.297Z,973.89
2022-12-17T06:17:38.051Z,973.88
2022-12-17T06:18:38.121Z,973.91
2022-12-17T06:19:38.024Z,973.91
2022-12-17T06:20:38.164Z,973.96
2022-12-17T06:21:38.023Z,973.96
2022-12-17T06:22:38.252Z,973.96
2022-12-17T06:23:38.285Z,974.00
2022-12-17T06:24:42.667Z,973.98
2022-12-17T06:25:38.072Z,974.00
2022-12-17T06:26:37.962Z,973.98
2022-12-17T06:27:38.121Z,973.99
2022-12-17T06:28:37.946Z,974.03
2022-12-17T06:29:38.091Z,974.00
2022-12-17T06:30:38.008Z,974.01
2022-12-17T06:31:37.998Z,974.05
2022-12-17T06:32:38.089Z,974.06
2022-12-17T06:33:38.234Z,974.11
2022-12-17T06:34:38.122Z,974.13
2022-12-17T06:35:38.045Z,974.13
2022-12-17T06:36:37.850Z,974.19
2022-12-17T06:37:37.944Z,974.18
2022-12-17T06:38:37.871Z,974.14
2022-12-17T06:39:37.964Z,974.15
2022-12-17T06:40:37.797Z,974.15
2022-12-17T06:41:37.868Z,974.09
2022-12-17T06:42:37.865Z,974.14
2022-12-17T06:43:38.428Z,974.15
2022-12-17T06:44:37.752Z,974.15
2022-12-17T06:45:37.921Z,974.13
2022-12-17T06:46:37.787Z,974.13
2022-12-17T06:47:37.820Z,974.14
2022-12-17T06:48:37.715Z,974.13
2022-12-17T06:49:37.996Z,974.15
2022-12-17T06:50:37.679Z,974.12
2022-12-17T06:51:38.032Z,974.13
2022-12-17T06:52:37.637Z,974.07
2022-12-17T06:53:38.301Z,974.11
2022-12-17T06:54:37.836Z,974.15
2022-12-17T06:55:37.864Z,974.16
2022-12-17T06:56:37.587Z,974.20
2022-12-17T06:57:41.147Z,974.17
2022-12-17T06:58:37.579Z,974.23
2022-12-17T06:59:37.836Z,974.22
2022-12-17T07:00:37.920Z,974.26
2022-12-17T07:01:37.784Z,974.27
2022-12-17T07:02:37.677Z,974.27
2022-12-17T07:03:38.239Z,974.29
2022-12-17T07:04:37.535Z,974.26
2022-12-17T07:05:37.589Z,974.26
2022-12-17T07:06:37.639Z,974.25
2022-12-17T07:07:37.470Z,974.29
2022-12-17T07:08:37.560Z,974.28
2022-12-17T07:09:37.451Z,974.28
2022-12-17T07:10:37.573Z,974.30
2022-12-17T07:11:37.539Z,974.34
2022-12-17T07:12:37.479Z,974.34
2022-12-17T07:13:37.790Z,974.39
2022-12-17T07:14:37.483Z,974.38
2022-12-17T07:15:37.451Z,974.38
2022-12-17T07:16:37.526Z,974.41
2022-12-17T07:17:37.394Z,974.45
2022-12-17T07:18:37.425Z,974.47
2022-12-17T07:19:37.357Z,974.47
2022-12-17T07:20:37.342Z,974.52
2022-12-17T07:21:37.495Z,974.53
2022-12-17T07:22:37.448Z,974.53
2022-12-17T07:23:37.594Z,974.55
2022-12-17T07:24:38.741Z,974.57
2022-12-17T07:25:40.531Z,974.58
2022-12-17T07:26:37.238Z,974.61
2022-12-17T07:27:37.461Z,974.64
2022-12-17T07:28:37.188Z,974.64
2022-12-17T07:29:37.508Z,974.68
2022-12-17T07:30:37.185Z,974.70
2022-12-17T07:31:37.425Z,974.76
2022-12-17T07:32:37.150Z,974.78
2022-12-17T07:33:37.760Z,974.79
2022-12-17T07:34:37.138Z,974.83
2022-12-17T07:35:37.367Z,974.80
2022-12-17T07:36:37.127Z,974.83
2022-12-17T07:37:37.218Z,974.84
2022-12-17T07:38:37.122Z,974.87
2022-12-17T07:39:37.273Z,974.88
2022-12-17T07:40:37.059Z,974.87
2022-12-17T07:41:37.597Z,974.90
2022-12-17T07:42:37.311Z,974.86
2022-12-17T07:43:37.813Z,974.91
2022-12-17T07:44:37.200Z,974.92
2022-12-17T07:45:37.162Z,974.92
2022-12-17T07:46:37.013Z,974.92
2022-12-17T07:47:37.137Z,974.94
2022-12-17T07:48:37.012Z,974.96
2022-12-17T07:49:37.034Z,974.98
2022-12-17T07:50:36.999Z,974.98
2022-12-17T07:51:37.165Z,975.01
2022-12-17T07:52:36.920Z,975.02
2022-12-17T07:53:37.388Z,974.99
2022-12-17T07:54:36.932Z,975.04
2022-12-17T07:55:37.019Z,975.08
2022-12-17T07:56:36.874Z,975.11
2022-12-17T07:57:37.164Z,975.06
2022-12-17T07:58:36.848Z,975.07
2022-12-17T07:59:36.984Z,975.04
2022-12-17T08:00:36.844Z,975.07
2022-12-17T08:01:37.029Z,975.05
2022-12-17T08:02:37.029Z,975.04
2022-12-17T08:03:37.441Z,975.05
2022-12-17T08:04:36.800Z,975.03
2022-12-17T08:05:36.954Z,975.01
2022-12-17T08:06:36.780Z,975.03
2022-12-17T08:07:37.205Z,975.02
2022-12-17T08:08:36.927Z,975.07
2022-12-17T08:09:36.734Z,975.09
2022-12-17T08:10:36.806Z,975.12
2022-12-17T08:11:36.931Z,975.15
2022-12-17T08:12:37.089Z,975.14
2022-12-17T08:13:37.162Z,975.15
2022-12-17T08:14:36.805Z,975.20
2022-12-17T08:15:36.742Z,975.16
2022-12-17T08:16:37.140Z,975.25
2022-12-17T08:17:36.785Z,975.21
2022-12-17T08:18:36.881Z,975.26
2022-12-17T08:19:36.929Z,975.28
2022-12-17T08:20:36.856Z,975.29
2022-12-17T08:21:36.619Z,975.29
2022-12-17T08:22:36.697Z,975.33
2022-12-17T08:23:37.223Z,975.36
2022-12-17T08:24:36.818Z,975.39
2022-12-17T08:25:36.668Z,975.37
2022-12-17T08:26:36.653Z,975.39
2022-12-17T08:27:36.661Z,975.43
2022-12-17T08:28:52.133Z,975.43
2022-12-17T08:29:37.159Z,975.48
2022-12-17T08:30:36.517Z,975.51
2022-12-17T08:31:36.669Z,975.52
2022-12-17T08:32:36.517Z,975.54
2022-12-17T08:33:37.057Z,975.56
2022-12-17T08:34:36.528Z,975.57
2022-12-17T08:35:36.432Z,975.59
2022-12-17T08:36:36.669Z,975.58
2022-12-17T08:37:36.744Z,975.60
2022-12-17T08:38:36.547Z,975.59
2022-12-17T08:39:36.385Z,975.51
2022-12-17T08:40:36.460Z,975.53
2022-12-17T08:41:37.566Z,975.51
2022-12-17T08:42:36.881Z,975.48
2022-12-17T08:43:37.163Z,975.52
2022-12-17T08:44:36.534Z,975.54
2022-12-17T08:45:36.412Z,975.54
2022-12-17T08:46:36.409Z,975.55
2022-12-17T08:47:36.343Z,975.56
2022-12-17T08:48:36.578Z,975.59
2022-12-17T08:49:36.275Z,975.62
2022-12-17T08:50:36.334Z,975.67
2022-12-17T08:51:36.250Z,975.65
2022-12-17T08:52:36.331Z,975.68
2022-12-17T08:53:36.823Z,975.65
2022-12-17T08:54:36.351Z,975.68
2022-12-17T08:55:36.283Z,975.69
2022-12-17T08:56:36.179Z,975.71
2022-12-17T08:57:36.400Z,975.69
2022-12-17T08:58:36.177Z,975.71
2022-12-17T08:59:36.189Z,975.70
2022-12-17T09:00:36.135Z,975.72
2022-12-17T09:01:37.408Z,975.72
2022-12-17T09:02:36.603Z,975.79
2022-12-17T09:03:37.424Z,975.81
2022-12-17T09:04:37.252Z,975.83
2022-12-17T09:05:36.587Z,975.87
2022-12-17T09:06:39.289Z,975.89
2022-12-17T09:07:36.304Z,975.91
2022-12-17T09:08:36.013Z,975.94
2022-12-17T09:09:36.217Z,975.95
2022-12-17T09:10:36.063Z,976.03
2022-12-17T09:11:36.651Z,976.01
2022-12-17T09:12:36.752Z,976.04
2022-12-17T09:13:38.429Z,976.06
2022-12-17T09:14:36.684Z,976.04
2022-12-17T09:15:36.862Z,976.06
2022-12-17T09:16:36.285Z,976.03
2022-12-17T09:17:37.196Z,976.06
2022-12-17T09:18:36.485Z,976.05
2022-12-17T09:19:36.958Z,976.05
2022-12-17T09:20:36.710Z,976.04
2022-12-17T09:21:37.622Z,976.07
2022-12-17T09:22:36.649Z,976.06
2022-12-17T09:23:37.740Z,976.05
2022-12-17T09:24:37.581Z,976.05
2022-12-17T09:25:36.693Z,976.07
2022-12-17T09:26:35.920Z,976.09
2022-12-17T09:27:35.989Z,976.06
2022-12-17T09:28:35.885Z,976.10
2022-12-17T09:29:36.021Z,976.07
2022-12-17T09:30:35.768Z,976.11
2022-12-17T09:31:37.712Z,976.13
2022-12-17T09:32:35.747Z,976.10
2022-12-17T09:33:36.325Z,976.13
2022-12-17T09:34:36.643Z,976.14
2022-12-17T09:35:35.949Z,976.14
2022-12-17T09:36:35.955Z,976.11
2022-12-17T09:37:36.261Z,976.12
2022-12-17T09:38:35.743Z,976.11
2022-12-17T09:39:35.688Z,976.14
2022-12-17T09:40:36.147Z,976.09
2022-12-17T09:41:35.738Z,976.12
2022-12-17T09:42:35.825Z,976.13
2022-12-17T09:43:36.345Z,976.15
2022-12-17T09:44:36.022Z,976.11
2022-12-17T09:45:35.637Z,976.10
2022-12-17T09:46:35.802Z,976.11
2022-12-17T09:47:35.603Z,976.09
2022-12-17T09:48:35.788Z,976.05
2022-12-17T09:49:35.944Z,976.06
2022-12-17T09:50:36.002Z,976.09
2022-12-17T09:51:35.928Z,976.06
2022-12-17T09:52:35.765Z,976.06
2022-12-17T09:53:35.856Z,976.02
2022-12-17T09:54:35.562Z,976.02
2022-12-17T09:55:35.481Z,976.02
2022-12-17T09:56:35.665Z,976.00
2022-12-17T09:57:35.754Z,975.99
2022-12-17T09:58:35.735Z,976.03
2022-12-17T09:59:35.473Z,976.03
2022-12-17T10:00:35.549Z,976.00
2022-12-17T10:01:35.588Z,976.08
2022-12-17T10:02:35.828Z,976.09
2022-12-17T10:03:37.580Z,976.11
2022-12-17T10:04:35.522Z,976.12
2022-12-17T10:05:35.500Z,976.10
2022-12-17T10:06:35.450Z,976.09
2022-12-17T10:07:35.445Z,976.05
2022-12-17T10:08:35.541Z,976.08
2022-12-17T10:09:35.314Z,976.08
2022-12-17T10:10:35.412Z,976.06
2022-12-17T10:11:35.288Z,976.02
2022-12-17T10:12:35.516Z,976.00
2022-12-17T10:13:35.632Z,975.95
2022-12-17T10:14:35.446Z,975.94
2022-12-17T10:15:35.401Z,975.93
2022-12-17T10:16:35.488Z,975.91
2022-12-17T10:17:35.352Z,975.93
2022-12-17T10:18:35.417Z,975.95
2022-12-17T10:19:35.239Z,975.98
2022-12-17T10:20:35.440Z,976.02
2022-12-17T10:21:35.178Z,976.02
2022-12-17T10:22:38.907Z,976.04
2022-12-17T10:23:36.021Z,976.04
2022-12-17T10:24:35.732Z,976.01
2022-12-17T10:25:35.207Z,976.04
2022-12-17T10:26:35.440Z,976.05
2022-12-17T10:27:35.392Z,976.09
2022-12-17T10:28:35.195Z,976.11
2022-12-17T10:29:35.093Z,976.09
2022-12-17T10:30:35.377Z,976.08
2022-12-17T10:31:35.215Z,976.07
2022-12-17T10:32:35.518Z,976.11
2022-12-17T10:33:35.673Z,976.08
2022-12-17T10:34:35.253Z,976.08
2022-12-17T10:35:35.392Z,976.09
2022-12-17T10:36:35.315Z,976.08
2022-12-17T10:37:35.308Z,976.11
2022-12-17T10:38:35.240Z,976.08
2022-12-17T10:39:35.092Z,976.06
2022-12-17T10:40:34.951Z,976.04
2022-12-17T10:41:35.073Z,976.05
2022-12-17T10:42:34.883Z,976.08
2022-12-17T10:43:35.391Z,976.11
2022-12-17T10:44:34.863Z,976.09
2022-12-17T10:45:35.155Z,976.08
2022-12-17T10:46:34.854Z,976.10
2022-12-17T10:47:35.517Z,976.10
2022-12-17T10:48:34.881Z,976.10
2022-12-17T10:49:34.952Z,976.10
2022-12-17T10:50:34.794Z,976.10
2022-12-17T10:51:35.003Z,976.06
2022-12-17T10:52:34.776Z,976.05
2022-12-17T10:53:35.470Z,976.06
2022-12-17T10:54:34.776Z,976.06
2022-12-17T10:55:34.966Z,976.07
2022-12-17T10:56:34.736Z,976.07
2022-12-17T10:57:34.873Z,976.07
2022-12-17T10:58:34.689Z,976.10
2022-12-17T10:59:34.774Z,976.12
2022-12-17T11:00:34.748Z,976.09
2022-12-17T11:01:34.925Z,976.10
2022-12-17T11:02:35.216Z,976.11
2022-12-17T11:03:35.538Z,976.10
2022-12-17T11:04:34.868Z,976.11
2022-12-17T11:05:35.927Z,976.11
2022-12-17T11:06:38.869Z,976.15
2022-12-17T11:07:34.587Z,976.12
2022-12-17T11:08:35.263Z,976.12
2022-12-17T11:09:34.783Z,976.10
2022-12-17T11:10:34.821Z,976.11
2022-12-17T11:11:34.552Z,976.09
2022-12-17T11:12:34.787Z,976.10
2022-12-17T11:13:35.020Z,976.16
2022-12-17T11:14:34.737Z,976.13
2022-12-17T11:15:34.619Z,976.13
2022-12-17T11:16:34.896Z,976.13
2022-12-17T11:17:34.486Z,976.18
2022-12-17T11:18:34.710Z,976.16
2022-12-17T11:19:34.419Z,976.14
2022-12-17T11:20:34.750Z,976.17
2022-12-17T11:21:34.453Z,976.20
2022-12-17T11:22:34.565Z,976.16
2022-12-17T11:23:34.824Z,976.16
2022-12-17T11:24:34.662Z,976.15
2022-12-17T11:25:34.446Z,976.20
2022-12-17T11:26:34.431Z,976.22
2022-12-17T11:27:34.988Z,976.23
2022-12-17T11:28:35.871Z,976.22
2022-12-17T11:29:35.140Z,976.26
2022-12-17T11:30:36.071Z,976.24
2022-12-17T11:31:34.613Z,976.22
2022-12-17T11:32:34.438Z,976.22
2022-12-17T11:33:34.672Z,976.20
2022-12-17T11:34:34.583Z,976.19
2022-12-17T11:35:34.392Z,976.18
2022-12-17T11:36:38.780Z,976.15
2022-12-17T11:37:34.263Z,976.09
2022-12-17T11:38:35.141Z,976.05
2022-12-17T11:39:34.271Z,976.05
2022-12-17T11:40:34.442Z,976.06
2022-12-17T11:41:34.194Z,976.07
2022-12-17T11:42:34.406Z,976.10
2022-12-17T11:43:34.175Z,976.13
2022-12-17T11:44:34.399Z,976.16
2022-12-17T11:45:34.129Z,976.14
2022-12-17T11:46:34.448Z,976.17
2022-12-17T11:47:34.095Z,976.21
2022-12-17T11:48:35.087Z,976.20
2022-12-17T11:49:35.155Z,976.17
2022-12-17T11:50:34.323Z,976.15
2022-12-17T11:51:36.333Z,976.19
2022-12-17T11:52:34.936Z,976.13
2022-12-17T11:53:34.280Z,976.16
2022-12-17T11:54:34.329Z,976.17
2022-12-17T11:55:33.998Z,976.13
2022-12-17T11:56:34.459Z,976.14
2022-12-17T11:57:33.993Z,976.10
2022-12-17T11:58:34.353Z,976.13
2022-12-17T11:59:34.006Z,976.14
2022-12-17T12:00:34.431Z,976.17
2022-12-17T12:01:34.148Z,976.16
2022-12-17T12:02:34.065Z,976.20
2022-12-17T12:03:34.425Z,976.20
2022-12-17T12:04:33.937Z,976.24
2022-12-17T12:05:34.935Z,976.22
2022-12-17T12:06:33.984Z,976.24
2022-12-17T12:07:34.086Z,976.22
2022-12-17T12:08:34.998Z,976.22
2022-12-17T12:09:34.504Z,976.21
2022-12-17T12:10:34.688Z,976.18
2022-12-17T12:11:34.926Z,976.17
2022-12-17T12:12:34.541Z,976.15
2022-12-17T12:13:34.866Z,976.15
2022-12-17T12:14:35.011Z,976.15
2022-12-17T12:15:34.298Z,976.14
2022-12-17T12:16:36.185Z,976.14
2022-12-17T12:17:34.008Z,976.02
2022-12-17T12:18:34.408Z,976.05
2022-12-17T12:19:34.103Z,976.04
2022-12-17T12:20:34.711Z,976.05
2022-12-17T12:21:34.072Z,976.03
2022-12-17T12:22:34.072Z,976.01
2022-12-17T12:23:33.991Z,976.03
2022-12-17T12:24:34.584Z,975.99
2022-12-17T12:25:33.973Z,976.01
2022-12-17T12:26:34.228Z,976.01
2022-12-17T12:27:39.149Z,975.99
2022-12-17T12:28:34.574Z,976.04